Strona główna
METAR-TAF:

Lotnisko :

Albert, Francja

Szerokość geograficzna: 49-58-21N, Długość geograficzna: 002-41-29E, wysokość: 111 m

Aktualna obserwacja pogody

Raport powstał 24 minut temu, godzina 04:30 UTC
Wiatr 8 kt od południowy wschód
Temperatura 18°C
Wilgotność 83%
Ciśnienie 1020 hPa
Widzialność 10 km lub więcej
Brak chmur poniżej 1500 m i brak chmur cumulonimbus

METAR: LFAQ 240430Z AUTO 13008KT CAVOK 18/15 Q1020

czas: 06:54 (04:54 UTC)

Prognoza

Raport powstał 14 godziny i 54 minut temu, godzina 14:00 UTC
Prognoza ważna od 23 godzina 15 UTC do 23 godzina 24 UTC
Wiatr 10 kt od południowy wschód
Widzialność 10 km lub więcej
Brak chmur poniżej 1500 m i brak chmur cumulonimbus

TAF: LFAQ 231400Z 2315/2324 14010KT CAVOK

METAR-TAF

Obserwacja i prognoza pogody dla ponad 4000 lotnisk (raport METAR i TAF).

Dostępne stacje oznaczono żółtymi i czerwonymi punktami na mapie.

Najedź kursorem aby zobaczyć nazwę stacji.

Kliknij aby zobaczyć obserwacje i prognozy pogody.

Aby zmienić mapę: kliknij na zielony przycisk z czarnym krzyżykiem, aby powiększyć; na zielony przycisk z myślnikiem, aby pomniejszyć; na zielone strzałki, aby przejść do map sąsiednich.


METAR-TAF: